Time;durP1;ratioP1;P1;durP2;ratioP2;P2;SDS_P1;SDS_P2;PMS_P1;PMS_P2;Temp;Humidity;BMP_temperature;BMP_pressure;BME280_temperature;BME280_humidity;BME280_pressure;Samples;Min_cycle;Max_cycle;Signal;HPM_P1;HPM_P2
2023/09/03 00:00:54;;;;;;;6.15;4.50;;;17.30;99.90;;;;;;4592220;19;20017;-73
2023/09/03 00:02:49;;;;;;;6.13;4.97;;;17.30;99.90;;;;;;4590736;19;20411;-73
2023/09/03 00:04:23;;;;;;;6.18;5.55;;;17.30;99.90;;;;;;4592343;19;20006;-74
2023/09/03 00:05:59;;;;;;;5.93;5.25;;;17.30;99.90;;;;;;4592483;19;20014;-73
2023/09/03 00:07:33;;;;;;;6.90;5.00;;;17.20;99.90;;;;;;4592196;19;20003;-73
2023/09/03 00:09:07;;;;;;;6.32;4.90;;;17.30;99.90;;;;;;4592384;19;20035;-73
2023/09/03 00:10:42;;;;;;;6.25;4.63;;;17.30;99.90;;;;;;4592567;19;20039;-73
2023/09/03 00:12:16;;;;;;;5.72;5.05;;;17.20;99.90;;;;;;4591998;19;20003;-73
2023/09/03 00:13:50;;;;;;;6.10;4.47;;;17.20;99.90;;;;;;4592487;19;20425;-73
2023/09/03 00:15:26;;;;;;;5.97;4.60;;;17.20;99.90;;;;;;4592198;19;20422;-73
2023/09/03 00:17:00;;;;;;;6.25;5.05;;;17.20;99.90;;;;;;4591975;19;20092;-73
2023/09/03 00:18:34;;;;;;;7.90;6.85;;;17.20;99.90;;;;;;4589530;19;20011;-73
2023/09/03 00:20:10;;;;;;;8.18;7.32;;;17.20;99.90;;;;;;4591583;19;20011;-73
2023/09/03 00:21:45;;;;;;;7.05;6.35;;;17.20;99.90;;;;;;4590390;19;20015;-74
2023/09/03 00:23:19;;;;;;;8.00;6.80;;;17.20;99.90;;;;;;4591355;19;20010;-73
2023/09/03 00:24:55;;;;;;;7.72;6.25;;;17.20;99.90;;;;;;4590832;19;20006;-73
2023/09/03 00:26:29;;;;;;;6.45;5.75;;;17.20;99.90;;;;;;4591697;19;20418;-73
2023/09/03 00:28:03;;;;;;;7.45;5.65;;;17.10;99.90;;;;;;4591511;19;20002;-73
2023/09/03 00:29:40;;;;;;;7.03;6.00;;;17.20;99.90;;;;;;4590463;19;20070;-72
2023/09/03 00:31:15;;;;;;;7.05;5.80;;;17.10;99.90;;;;;;4591375;19;20002;-73
2023/09/03 00:32:49;;;;;;;7.45;6.50;;;17.10;99.90;;;;;;4591689;19;20424;-73
2023/09/03 00:34:24;;;;;;;7.22;5.65;;;17.20;99.90;;;;;;4591962;19;19999;-73
2023/09/03 00:35:58;;;;;;;12.80;7.35;;;17.10;99.90;;;;;;4591647;19;20006;-73
2023/09/03 00:37:34;;;;;;;8.05;6.57;;;17.10;99.90;;;;;;4592184;19;20002;-73
2023/09/03 00:39:09;;;;;;;8.52;7.32;;;17.20;99.90;;;;;;4594485;19;20003;-73
2023/09/03 00:40:44;;;;;;;8.48;7.10;;;17.20;99.90;;;;;;4596296;19;20007;-73
2023/09/03 00:42:18;;;;;;;9.82;7.57;;;17.20;99.90;;;;;;4596352;19;20033;-73
2023/09/03 00:43:53;;;;;;;9.50;7.05;;;17.10;99.90;;;;;;4596306;19;19998;-73
2023/09/03 00:45:27;;;;;;;9.07;7.53;;;17.10;99.90;;;;;;4596372;19;20002;-73
2023/09/03 00:47:02;;;;;;;11.27;8.07;;;17.20;99.90;;;;;;4596459;19;20037;-73
2023/09/03 00:48:37;;;;;;;11.00;7.95;;;17.10;99.90;;;;;;4595009;19;20011;-73
2023/09/03 00:50:12;;;;;;;9.68;7.72;;;17.10;99.90;;;;;;4596126;19;20002;-73
2023/09/03 00:51:46;;;;;;;9.13;7.32;;;17.10;99.90;;;;;;4594866;19;19999;-73
2023/09/03 00:53:21;;;;;;;9.38;7.47;;;17.10;99.90;;;;;;4595783;19;20007;-73
2023/09/03 00:54:55;;;;;;;10.70;8.05;;;17.10;99.90;;;;;;4594563;19;20081;-73
2023/09/03 00:56:29;;;;;;;9.02;7.72;;;17.10;99.90;;;;;;4595472;19;20002;-73
2023/09/03 00:58:06;;;;;;;10.30;7.40;;;17.10;99.90;;;;;;4594946;19;20390;-73
2023/09/03 00:59:41;;;;;;;9.00;7.78;;;17.00;99.90;;;;;;4594819;19;20396;-73
2023/09/03 01:01:15;;;;;;;10.30;7.88;;;17.00;99.90;;;;;;4595444;19;20070;-73
2023/09/03 01:02:50;;;;;;;9.95;8.00;;;17.00;99.90;;;;;;4594501;19;20066;-73
2023/09/03 01:04:25;;;;;;;9.52;7.93;;;17.00;99.90;;;;;;4595587;19;20013;-73
2023/09/03 01:05:59;;;;;;;10.43;7.70;;;17.00;99.90;;;;;;4595658;19;20066;-73
2023/09/03 01:07:35;;;;;;;11.00;7.60;;;16.90;99.90;;;;;;4595515;19;20003;-73
2023/09/03 01:09:08;;;;;;;11.43;8.75;;;16.90;99.90;;;;;;4594569;19;20003;-73
2023/09/03 01:11:03;;;;;;;9.90;7.75;;;16.90;99.90;;;;;;4595233;19;20482;-73
2023/09/03 01:12:52;;;;;;;9.93;7.93;;;16.90;99.90;;;;;;4594515;19;20433;-73
2023/09/03 01:14:44;;;;;;;10.38;7.93;;;16.90;99.90;;;;;;4595410;19;20010;-73
2023/09/03 01:16:30;;;;;;;10.10;8.20;;;16.90;99.90;;;;;;4595844;19;20283;-73
2023/09/03 01:18:17;;;;;;;10.95;8.52;;;16.80;99.90;;;;;;4592826;19;20951;-73
2023/09/03 01:20:09;;;;;;;9.70;7.75;;;16.80;99.90;;;;;;4594329;19;20023;-73
2023/09/03 01:22:17;;;;;;;10.32;8.77;;;16.80;99.90;;;;;;4594166;19;20006;-73
2023/09/03 01:24:05;;;;;;;11.30;7.47;;;16.70;99.90;;;;;;4592835;19;20428;-73
2023/09/03 01:26:05;;;;;;;9.32;8.10;;;16.70;99.90;;;;;;4592911;19;20363;-73
2023/09/03 01:28:04;;;;;;;9.90;7.95;;;16.70;99.90;;;;;;4592966;19;20026;-73
2023/09/03 01:29:41;;;;;;;10.13;8.38;;;16.70;99.90;;;;;;4592516;19;20006;-73
2023/09/03 01:31:18;;;;;;;12.35;8.98;;;16.60;99.90;;;;;;4593168;19;20488;-73
2023/09/03 01:32:54;;;;;;;9.70;8.68;;;16.60;99.90;;;;;;4592890;19;20420;-73
2023/09/03 01:34:29;;;;;;;11.25;9.57;;;16.60;99.90;;;;;;4593470;19;20031;-73
2023/09/03 01:36:06;;;;;;;11.90;9.50;;;16.60;99.90;;;;;;4592998;19;19999;-73
2023/09/03 01:37:45;;;;;;;12.60;10.10;;;16.60;99.90;;;;;;4592703;19;20074;-73
2023/09/03 01:39:22;;;;;;;10.15;8.60;;;16.60;99.90;;;;;;4593112;19;20011;-73
2023/09/03 01:40:56;;;;;;;11.15;9.63;;;16.60;99.90;;;;;;4592593;19;20006;-73
2023/09/03 01:42:29;;;;;;;10.00;8.75;;;16.60;99.90;;;;;;4592591;19;20007;-74
2023/09/03 01:44:07;;;;;;;10.65;8.85;;;16.60;99.90;;;;;;4592571;19;20096;-73
2023/09/03 01:45:55;;;;;;;11.13;9.20;;;16.60;99.90;;;;;;4592574;19;20013;-73
2023/09/03 01:47:51;;;;;;;9.82;8.20;;;16.50;99.90;;;;;;4592317;19;20032;-73
2023/09/03 01:49:54;;;;;;;9.35;7.90;;;16.50;99.90;;;;;;4592839;19;20006;-73
2023/09/03 01:51:52;;;;;;;8.68;7.15;;;16.50;99.90;;;;;;4592797;19;20657;-73
2023/09/03 01:53:36;;;;;;;8.77;7.32;;;16.50;99.90;;;;;;4592718;19;20014;-73
2023/09/03 01:55:12;;;;;;;9.18;6.82;;;16.40;99.90;;;;;;4592829;19;20010;-73
2023/09/03 01:57:09;;;;;;;7.03;6.32;;;16.50;99.90;;;;;;4592328;19;20007;-73
2023/09/03 01:58:43;;;;;;;6.93;6.15;;;16.40;99.90;;;;;;4591132;19;20089;-73
2023/09/03 02:00:18;;;;;;;8.80;6.80;;;16.40;99.90;;;;;;4592369;19;20007;-73
2023/09/03 02:01:55;;;;;;;7.85;6.28;;;16.40;99.90;;;;;;4594417;19;20070;-73
2023/09/03 02:03:29;;;;;;;7.05;6.35;;;16.40;99.90;;;;;;4594537;19;20021;-73
2023/09/03 02:05:07;;;;;;;7.63;6.25;;;16.40;99.90;;;;;;4594526;19;20018;-73
2023/09/03 02:06:44;;;;;;;7.25;6.32;;;16.30;99.90;;;;;;4594735;19;20007;-73
2023/09/03 02:08:18;;;;;;;7.20;6.18;;;16.40;99.90;;;;;;4592403;19;20002;-73
2023/09/03 02:09:53;;;;;;;7.82;6.35;;;16.30;99.90;;;;;;4594192;19;20115;-73
2023/09/03 02:11:28;;;;;;;9.38;7.72;;;16.30;99.90;;;;;;4594407;19;19998;-73
2023/09/03 02:13:03;;;;;;;8.05;6.57;;;16.20;99.90;;;;;;4594347;19;20001;-73
2023/09/03 02:14:39;;;;;;;9.68;7.63;;;16.20;99.90;;;;;;4594302;19;20337;-73
2023/09/03 02:16:14;;;;;;;13.40;10.93;;;16.20;99.90;;;;;;4594110;19;20017;-73
2023/09/03 02:17:48;;;;;;;25.25;18.98;;;16.20;99.90;;;;;;4594203;19;20066;-73
2023/09/03 02:19:23;;;;;;;21.80;16.60;;;16.10;99.90;;;;;;4592354;19;20018;-73
2023/09/03 02:20:57;;;;;;;19.20;13.88;;;16.10;99.90;;;;;;4593828;19;20335;-73
2023/09/03 02:22:31;;;;;;;15.23;11.73;;;16.10;99.90;;;;;;4593662;19;20007;-73
2023/09/03 02:24:07;;;;;;;11.23;10.07;;;16.10;99.90;;;;;;4594014;19;20025;-73
2023/09/03 02:25:42;;;;;;;11.23;9.13;;;16.10;99.90;;;;;;4592549;19;20102;-73
2023/09/03 02:27:16;;;;;;;9.50;8.43;;;16.10;99.90;;;;;;4593565;19;19998;-73
2023/09/03 02:28:52;;;;;;;9.18;8.05;;;16.00;99.90;;;;;;4592493;19;20317;-72
2023/09/03 02:30:26;;;;;;;8.65;7.75;;;16.00;99.90;;;;;;4593801;19;20003;-75
2023/09/03 02:32:46;;;;;;;7.75;6.95;;;16.00;99.90;;;;;;4593198;19;20018;-73
2023/09/03 02:34:34;;;;;;;7.68;6.88;;;16.00;99.90;;;;;;4596369;19;20022;-73
2023/09/03 02:36:08;;;;;;;7.75;6.95;;;16.00;99.90;;;;;;4595315;19;20015;-72
2023/09/03 02:37:43;;;;;;;7.85;6.75;;;16.00;99.90;;;;;;4596256;19;20010;-73
2023/09/03 02:39:18;;;;;;;8.05;6.72;;;16.00;99.90;;;;;;4591654;19;20038;-73
2023/09/03 02:40:52;;;;;;;8.00;6.57;;;16.00;99.90;;;;;;4594215;19;20005;-73
2023/09/03 02:42:26;;;;;;;7.55;6.55;;;16.00;99.90;;;;;;4593220;19;20526;-73
2023/09/03 02:44:01;;;;;;;7.00;6.30;;;16.00;99.90;;;;;;4594811;19;20082;-73
2023/09/03 02:45:35;;;;;;;6.50;5.80;;;16.00;99.90;;;;;;4592752;19;20013;-73
2023/09/03 02:47:10;;;;;;;6.25;5.55;;;16.00;99.90;;;;;;4592801;19;19998;-73
2023/09/03 02:48:47;;;;;;;7.43;6.70;;;16.00;99.90;;;;;;4592620;19;20010;-73
2023/09/03 02:50:22;;;;;;;6.43;5.70;;;16.00;99.90;;;;;;4592647;19;20097;-73
2023/09/03 02:51:56;;;;;;;7.30;6.60;;;15.90;99.90;;;;;;4593731;19;20003;-74
2023/09/03 02:53:31;;;;;;;6.30;5.35;;;15.90;99.90;;;;;;4594006;19;20417;-73
2023/09/03 02:55:06;;;;;;;7.55;5.13;;;16.20;99.90;;;;;;4594293;19;20003;-74
2023/09/03 02:56:40;;;;;;;6.72;5.45;;;16.50;99.90;;;;;;4593982;19;19998;-73
2023/09/03 02:58:16;;;;;;;6.28;4.43;;;16.90;99.90;;;;;;4593121;19;20010;-74
2023/09/03 02:59:50;;;;;;;5.78;4.78;;;17.20;99.90;;;;;;4592436;19;20003;-74
2023/09/03 03:01:25;;;;;;;6.63;4.18;;;17.40;99.90;;;;;;4593651;19;20414;-73
2023/09/03 03:03:01;;;;;;;5.32;4.00;;;17.60;99.90;;;;;;4593820;19;20445;-74
2023/09/03 03:04:37;;;;;;;5.60;4.90;;;17.80;99.90;;;;;;4593777;19;20010;-74
2023/09/03 03:06:11;;;;;;;6.20;4.93;;;18.00;99.90;;;;;;4593776;19;19998;-74
2023/09/03 03:07:46;;;;;;;4.50;4.07;;;18.10;99.90;;;;;;4592542;19;20010;-74
2023/09/03 03:09:20;;;;;;;5.20;4.30;;;18.20;99.90;;;;;;4592261;19;20017;-74
2023/09/03 03:11:08;;;;;;;6.32;4.50;;;18.30;99.90;;;;;;4593322;19;20043;-74
2023/09/03 03:12:47;;;;;;;5.93;3.97;;;18.50;99.90;;;;;;4593704;19;20007;-72
2023/09/03 03:14:22;;;;;;;5.28;3.95;;;18.50;99.90;;;;;;4593840;19;20076;-73
2023/09/03 03:15:56;;;;;;;6.20;4.32;;;18.50;99.90;;;;;;4593574;19;20026;-73
2023/09/03 03:17:32;;;;;;;5.93;4.35;;;18.60;99.90;;;;;;4593686;19;20305;-73
2023/09/03 03:19:06;;;;;;;5.68;4.50;;;18.70;99.90;;;;;;4590650;19;20047;-73
2023/09/03 03:20:41;;;;;;;7.85;4.70;;;18.70;99.90;;;;;;4593083;19;20021;-73
2023/09/03 03:22:17;;;;;;;5.72;4.63;;;18.80;99.90;;;;;;4593574;19;20009;-73
2023/09/03 03:23:52;;;;;;;4.88;3.63;;;18.90;99.90;;;;;;4593691;19;19998;-73
2023/09/03 03:25:26;;;;;;;6.07;4.32;;;18.90;99.90;;;;;;4592011;19;20006;-73
2023/09/03 03:27:02;;;;;;;6.32;4.60;;;18.90;99.90;;;;;;4592045;19;20032;-73
2023/09/03 03:28:36;;;;;;;6.82;5.10;;;19.00;99.90;;;;;;4592225;19;20314;-73
2023/09/03 03:30:10;;;;;;;7.35;4.72;;;19.00;99.90;;;;;;4592177;19;20005;-73
2023/09/03 03:31:45;;;;;;;5.72;4.25;;;19.00;99.90;;;;;;4593353;19;20073;-73
2023/09/03 03:33:19;;;;;;;5.97;4.38;;;19.00;99.90;;;;;;4593454;19;20354;-73
2023/09/03 03:34:54;;;;;;;6.40;5.07;;;19.00;99.90;;;;;;4593009;19;20015;-73
2023/09/03 03:36:29;;;;;;;6.50;4.63;;;19.10;99.90;;;;;;4593203;19;20006;-73
2023/09/03 03:38:04;;;;;;;6.32;4.55;;;19.10;99.90;;;;;;4591346;19;20007;-73
2023/09/03 03:39:39;;;;;;;5.50;4.20;;;19.10;99.90;;;;;;4592757;19;20349;-73
2023/09/03 03:41:17;;;;;;;6.07;4.80;;;19.10;99.90;;;;;;4593149;19;20062;-73
2023/09/03 03:42:51;;;;;;;5.78;5.10;;;19.10;99.90;;;;;;4593304;19;20287;-73
2023/09/03 03:44:26;;;;;;;6.38;4.65;;;19.20;99.90;;;;;;4593032;19;20025;-73
2023/09/03 03:46:01;;;;;;;5.88;4.80;;;19.20;99.90;;;;;;4593179;19;20003;-73
2023/09/03 03:47:40;;;;;;;7.90;5.07;;;19.20;99.90;;;;;;4591704;19;20006;-73
2023/09/03 03:49:14;;;;;;;5.88;4.60;;;19.30;99.90;;;;;;4591774;19;20005;-73
2023/09/03 03:50:55;;;;;;;8.70;4.63;;;19.20;99.90;;;;;;4591629;19;19998;-73
2023/09/03 03:52:31;;;;;;;6.75;4.78;;;19.20;99.90;;;;;;4587299;19;20484;-73
2023/09/03 03:54:08;;;;;;;7.05;4.53;;;19.30;99.90;;;;;;4588572;19;20085;-73
2023/09/03 03:56:10;;;;;;;6.22;4.35;;;19.30;99.90;;;;;;4588896;19;20034;-73
2023/09/03 03:57:46;;;;;;;6.28;4.50;;;19.30;99.90;;;;;;4588380;19;20023;-73
2023/09/03 03:59:21;;;;;;;6.30;4.20;;;19.30;99.90;;;;;;4589941;19;20438;-73
2023/09/03 04:00:57;;;;;;;7.50;5.07;;;19.30;99.90;;;;;;4590255;19;20110;-73
2023/09/03 04:02:31;;;;;;;6.43;5.47;;;19.30;99.90;;;;;;4591026;19;20014;-73
2023/09/03 04:04:06;;;;;;;8.50;5.63;;;19.30;99.90;;;;;;4590307;19;20021;-73
2023/09/03 04:05:43;;;;;;;8.35;5.70;;;19.40;99.90;;;;;;4586656;19;20019;-73
2023/09/03 04:07:17;;;;;;;10.07;7.57;;;19.30;99.90;;;;;;4590634;19;20017;-74
2023/09/03 04:08:53;;;;;;;11.48;7.07;;;19.30;99.90;;;;;;4589265;19;20022;-74
2023/09/03 04:10:28;;;;;;;12.27;7.97;;;19.40;99.90;;;;;;4591355;19;20021;-73
2023/09/03 04:12:02;;;;;;;12.32;8.00;;;19.40;99.90;;;;;;4589930;19;20015;-73
2023/09/03 04:13:38;;;;;;;10.70;7.68;;;19.40;99.90;;;;;;4590935;19;20059;-73
2023/09/03 04:15:14;;;;;;;8.68;6.03;;;19.40;99.90;;;;;;4588545;19;20018;-73
2023/09/03 04:16:48;;;;;;;10.07;5.80;;;19.40;99.90;;;;;;4589830;19;20408;-73
2023/09/03 04:18:25;;;;;;;9.80;5.40;;;19.40;99.90;;;;;;4588450;19;20014;-73
2023/09/03 04:20:01;;;;;;;8.43;6.07;;;19.40;99.90;;;;;;4588147;19;20018;-73
2023/09/03 04:21:34;;;;;;;8.65;5.68;;;19.40;99.90;;;;;;4589300;19;20011;-73
2023/09/03 04:23:08;;;;;;;7.72;5.50;;;19.40;99.90;;;;;;4587831;19;20110;-73
2023/09/03 04:24:44;;;;;;;7.50;5.60;;;19.40;99.90;;;;;;4589687;19;20006;-73
2023/09/03 04:26:19;;;;;;;8.63;5.75;;;19.40;99.90;;;;;;4588458;19;20010;-73
2023/09/03 04:27:53;;;;;;;10.02;5.80;;;19.40;99.90;;;;;;4588090;19;20018;-73
2023/09/03 04:29:29;;;;;;;7.63;5.43;;;19.40;99.90;;;;;;4588737;19;20010;-73
2023/09/03 04:31:08;;;;;;;7.68;5.28;;;19.40;99.90;;;;;;4589144;19;20028;-73
2023/09/03 04:32:46;;;;;;;9.93;5.90;;;19.40;99.90;;;;;;4587653;19;20018;-73
2023/09/03 04:34:21;;;;;;;8.80;6.05;;;19.40;99.90;;;;;;4590110;19;20021;-74
2023/09/03 04:35:59;;;;;;;8.30;6.40;;;19.40;99.90;;;;;;4589680;19;20025;-73
2023/09/03 04:37:34;;;;;;;9.07;5.90;;;19.40;99.90;;;;;;4588566;19;20415;-73
2023/09/03 04:39:11;;;;;;;7.80;6.13;;;19.40;99.90;;;;;;4588430;19;20019;-73
2023/09/03 04:40:45;;;;;;;7.88;6.03;;;19.50;99.90;;;;;;4589283;19;20018;-73
2023/09/03 04:42:20;;;;;;;7.85;6.65;;;19.50;99.90;;;;;;4588740;19;20014;-73
2023/09/03 04:44:08;;;;;;;7.75;6.00;;;19.50;99.90;;;;;;4588261;19;20465;-73
2023/09/03 04:45:51;;;;;;;7.32;5.90;;;19.50;99.90;;;;;;4589036;19;20342;-73
2023/09/03 04:47:24;;;;;;;7.10;5.55;;;19.50;99.90;;;;;;4588759;19;20027;-73
2023/09/03 04:49:02;;;;;;;7.90;6.47;;;19.50;99.90;;;;;;4588296;19;20037;-73
2023/09/03 04:50:37;;;;;;;7.50;6.28;;;19.50;99.90;;;;;;4589701;19;20014;-73
2023/09/03 04:52:11;;;;;;;7.65;6.15;;;19.50;99.90;;;;;;4588930;19;20035;-73
2023/09/03 04:53:47;;;;;;;8.85;6.32;;;19.60;99.90;;;;;;4588492;19;20044;-73
2023/09/03 04:55:21;;;;;;;7.13;6.30;;;19.60;99.90;;;;;;4589075;19;20011;-73
2023/09/03 04:56:56;;;;;;;8.98;5.53;;;19.60;99.90;;;;;;4589282;19;20314;-73
2023/09/03 04:58:31;;;;;;;7.63;6.25;;;19.60;99.90;;;;;;4587074;19;20035;-73
2023/09/03 05:00:05;;;;;;;8.05;5.78;;;19.60;99.90;;;;;;4587508;19;20019;-73
2023/09/03 05:01:39;;;;;;;8.85;6.05;;;19.60;99.90;;;;;;4588768;19;20011;-73
2023/09/03 05:03:15;;;;;;;8.93;6.45;;;19.60;99.90;;;;;;4589230;19;20373;-73
2023/09/03 05:04:50;;;;;;;8.85;7.13;;;19.60;99.90;;;;;;4589417;19;20018;-73
2023/09/03 05:06:26;;;;;;;10.65;8.02;;;19.60;99.90;;;;;;4588769;19;20015;-73
2023/09/03 05:08:04;;;;;;;11.32;6.80;;;19.60;99.90;;;;;;4586839;19;20030;-73
2023/09/03 05:09:38;;;;;;;7.10;6.30;;;19.60;99.90;;;;;;4589365;19;20448;-73
2023/09/03 05:11:12;;;;;;;8.73;6.07;;;19.60;99.90;;;;;;4587087;19;20018;-73
2023/09/03 05:12:47;;;;;;;7.00;5.78;;;19.60;99.90;;;;;;4587802;19;20029;-73
2023/09/03 05:14:21;;;;;;;10.10;6.25;;;19.60;99.90;;;;;;4586802;19;20015;-73
2023/09/03 05:15:56;;;;;;;8.40;6.32;;;19.70;99.90;;;;;;4586732;19;20020;-73
2023/09/03 05:17:31;;;;;;;7.60;5.75;;;19.70;99.90;;;;;;4589448;19;20429;-73
2023/09/03 05:19:06;;;;;;;7.53;6.03;;;19.70;99.90;;;;;;4587054;19;20039;-73
2023/09/03 05:20:41;;;;;;;9.00;6.95;;;19.70;99.90;;;;;;4588421;19;20379;-73
2023/09/03 05:22:16;;;;;;;7.78;6.55;;;19.70;99.90;;;;;;4588164;19;20110;-73
2023/09/03 05:23:51;;;;;;;9.68;6.40;;;19.70;99.90;;;;;;4592012;19;20021;-73
2023/09/03 05:25:25;;;;;;;7.70;6.50;;;19.70;99.90;;;;;;4591890;19;20345;-73
2023/09/03 05:27:00;;;;;;;7.70;6.30;;;19.70;99.90;;;;;;4593477;19;20031;-73
2023/09/03 05:28:33;;;;;;;6.75;6.05;;;19.70;99.90;;;;;;4592645;19;20510;-73
2023/09/03 05:30:10;;;;;;;8.93;7.53;;;19.70;99.90;;;;;;4592301;19;20014;-73
2023/09/03 05:31:46;;;;;;;7.70;6.90;;;19.70;99.90;;;;;;4591059;19;20355;-73
2023/09/03 05:33:20;;;;;;;10.13;6.70;;;19.70;99.90;;;;;;4592820;19;20038;-73
2023/09/03 05:34:54;;;;;;;7.20;6.50;;;19.80;99.90;;;;;;4594243;19;20014;-73
2023/09/03 05:36:30;;;;;;;7.93;7.13;;;19.70;99.90;;;;;;4591918;19;20677;-73
2023/09/03 05:38:05;;;;;;;8.57;7.13;;;19.70;99.90;;;;;;4591290;19;20006;-73
2023/09/03 05:39:39;;;;;;;9.07;6.72;;;19.80;99.90;;;;;;4593261;19;20010;-73
2023/09/03 05:41:14;;;;;;;8.38;7.32;;;19.80;99.90;;;;;;4591462;19;20006;-74
2023/09/03 05:42:48;;;;;;;6.82;6.00;;;19.80;99.90;;;;;;4594302;19;20022;-73
2023/09/03 05:44:22;;;;;;;8.45;7.30;;;19.80;99.90;;;;;;4591376;19;20041;-73
2023/09/03 05:46:00;;;;;;;9.68;7.18;;;19.80;99.90;;;;;;4593095;19;20323;-74
2023/09/03 05:47:35;;;;;;;7.60;6.68;;;19.80;99.90;;;;;;4592332;19;20070;-74
2023/09/03 05:49:09;;;;;;;8.63;7.15;;;19.80;99.90;;;;;;4589975;19;20040;-72
2023/09/03 05:50:44;;;;;;;7.88;7.05;;;19.80;99.90;;;;;;4593049;19;20014;-73
2023/09/03 05:52:18;;;;;;;8.27;7.47;;;19.80;99.90;;;;;;4592171;19;20014;-73
2023/09/03 05:53:53;;;;;;;8.18;6.60;;;19.80;99.90;;;;;;4592054;19;20018;-73
2023/09/03 05:55:30;;;;;;;8.13;7.28;;;19.90;99.90;;;;;;4591740;19;20322;-73
2023/09/03 05:57:06;;;;;;;8.20;6.70;;;19.80;99.90;;;;;;4591706;19;20010;-73
2023/09/03 05:58:40;;;;;;;7.90;7.10;;;19.90;99.90;;;;;;4590720;19;20053;-74
2023/09/03 06:00:15;;;;;;;7.75;6.68;;;19.80;99.90;;;;;;4591914;19;20039;-73
2023/09/03 06:01:49;;;;;;;9.43;7.80;;;19.90;99.90;;;;;;4591707;19;20033;-74
2023/09/03 06:03:23;;;;;;;9.40;7.53;;;19.90;99.90;;;;;;4593382;19;20086;-72
2023/09/03 06:04:58;;;;;;;9.63;8.18;;;19.90;99.90;;;;;;4592975;19;20047;-75
2023/09/03 06:06:40;;;;;;;9.27;7.40;;;19.90;99.90;;;;;;4593235;19;20011;-73
2023/09/03 06:08:15;;;;;;;8.73;7.30;;;19.90;99.90;;;;;;4592834;19;20018;-73
2023/09/03 06:10:17;;;;;;;10.05;8.18;;;19.90;99.90;;;;;;4594305;19;20077;-73
2023/09/03 06:11:53;;;;;;;11.27;7.70;;;19.90;99.90;;;;;;4594457;19;20019;-74
2023/09/03 06:13:32;;;;;;;11.70;7.68;;;19.90;99.90;;;;;;4593301;19;20035;-73
2023/09/03 06:15:08;;;;;;;8.68;7.45;;;19.90;99.90;;;;;;4594909;19;20002;-73
2023/09/03 06:16:43;;;;;;;9.52;8.43;;;19.90;99.90;;;;;;4594713;19;20007;-73
2023/09/03 06:18:17;;;;;;;10.30;7.90;;;19.90;99.90;;;;;;4592285;19;20027;-73
2023/09/03 06:19:53;;;;;;;8.38;7.43;;;19.90;99.90;;;;;;4594703;19;20007;-73
2023/09/03 06:21:29;;;;;;;10.95;8.20;;;19.90;99.90;;;;;;4594581;19;20070;-73
2023/09/03 06:23:04;;;;;;;9.27;7.75;;;19.90;99.90;;;;;;4595015;19;20007;-73
2023/09/03 06:24:39;;;;;;;9.07;7.65;;;19.90;99.90;;;;;;4594983;19;20429;-73
2023/09/03 06:26:14;;;;;;;10.02;7.70;;;19.90;99.90;;;;;;4593489;19;20414;-73
2023/09/03 06:27:50;;;;;;;11.10;9.40;;;19.90;99.90;;;;;;4593851;19;20671;-72
2023/09/03 06:29:26;;;;;;;9.80;8.10;;;19.90;99.90;;;;;;4594570;19;20074;-73
2023/09/03 06:31:01;;;;;;;10.23;7.45;;;19.90;99.90;;;;;;4593021;19;20011;-73
2023/09/03 06:32:36;;;;;;;9.25;7.35;;;19.90;99.90;;;;;;4593099;19;20007;-73
2023/09/03 06:34:11;;;;;;;9.40;7.68;;;20.00;99.90;;;;;;4593548;19;20029;-73
2023/09/03 06:35:45;;;;;;;9.27;7.75;;;20.00;99.90;;;;;;4592546;19;20025;-73
2023/09/03 06:37:18;;;;;;;10.27;7.38;;;20.10;99.90;;;;;;4594260;19;20021;-73
2023/09/03 06:38:54;;;;;;;9.60;6.90;;;20.10;99.90;;;;;;4592765;19;20302;-73
2023/09/03 06:40:28;;;;;;;11.55;10.35;;;20.10;99.90;;;;;;4594636;19;20037;-73
2023/09/03 06:42:02;;;;;;;12.77;10.93;;;19.40;99.90;;;;;;4594232;19;19998;-74
2023/09/03 06:43:38;;;;;;;12.68;11.07;;;18.30;99.90;;;;;;4594383;19;20023;-73
2023/09/03 06:45:12;;;;;;;14.68;12.52;;;17.80;99.90;;;;;;4594448;19;20006;-73
2023/09/03 06:46:47;;;;;;;16.42;12.30;;;17.60;99.90;;;;;;4594483;19;20003;-73
2023/09/03 06:48:22;;;;;;;16.73;12.68;;;17.60;99.90;;;;;;4593296;19;20306;-73
2023/09/03 06:49:56;;;;;;;13.68;11.48;;;17.60;99.90;;;;;;4594097;19;20311;-73
2023/09/03 06:51:30;;;;;;;13.85;11.60;;;17.60;99.90;;;;;;4594301;19;20008;-73
2023/09/03 06:53:05;;;;;;;14.35;10.90;;;17.60;99.90;;;;;;4594279;19;20011;-73
2023/09/03 06:54:39;;;;;;;14.73;12.07;;;17.60;99.90;;;;;;4592951;19;20426;-74
2023/09/03 06:56:14;;;;;;;12.98;10.40;;;17.60;99.90;;;;;;4593630;19;20035;-72
2023/09/03 06:57:52;;;;;;;13.05;9.65;;;17.60;99.90;;;;;;4593648;19;20002;-73
2023/09/03 06:59:27;;;;;;;14.50;10.63;;;17.60;99.90;;;;;;4592668;19;20328;-73
2023/09/03 07:01:03;;;;;;;11.88;9.90;;;17.60;99.90;;;;;;4594113;19;20364;-73
2023/09/03 07:02:38;;;;;;;13.30;10.00;;;17.70;99.90;;;;;;4593940;19;20029;-73
2023/09/03 07:04:12;;;;;;;12.32;9.85;;;17.70;99.90;;;;;;4592353;19;20502;-72
2023/09/03 07:05:47;;;;;;;12.13;9.95;;;17.70;99.90;;;;;;4593433;19;20035;-73
2023/09/03 07:07:22;;;;;;;11.85;8.65;;;17.70;99.90;;;;;;4593884;19;20427;-72
2023/09/03 07:08:56;;;;;;;13.23;9.30;;;17.70;99.90;;;;;;4592361;19;20007;-73
2023/09/03 07:10:31;;;;;;;12.32;9.48;;;17.70;99.90;;;;;;4593534;19;20014;-72
2023/09/03 07:12:07;;;;;;;11.98;9.20;;;17.70;99.90;;;;;;4592626;19;20013;-73
2023/09/03 07:13:41;;;;;;;12.82;9.25;;;17.70;99.90;;;;;;4593297;19;20003;-74
2023/09/03 07:15:14;;;;;;;12.32;9.27;;;17.80;99.90;;;;;;4592233;19;20003;-74
2023/09/03 07:16:50;;;;;;;14.13;8.77;;;17.70;99.90;;;;;;4593447;19;20010;-74
2023/09/03 07:18:25;;;;;;;11.48;9.13;;;17.70;99.90;;;;;;4592410;19;20019;-73
2023/09/03 07:19:59;;;;;;;12.85;9.30;;;17.70;99.90;;;;;;4593583;19;20006;-74
2023/09/03 07:21:34;;;;;;;10.10;8.25;;;17.70;99.90;;;;;;4593448;19;20035;-74
2023/09/03 07:23:08;;;;;;;10.75;9.07;;;17.80;99.90;;;;;;4593604;19;20005;-73
2023/09/03 07:24:42;;;;;;;10.27;8.38;;;17.80;99.90;;;;;;4593367;19;20003;-73
2023/09/03 07:26:19;;;;;;;10.18;8.02;;;17.80;99.90;;;;;;4593332;19;20006;-75
2023/09/03 07:27:53;;;;;;;10.13;8.23;;;17.80;99.90;;;;;;4591732;19;20019;-74
2023/09/03 07:29:27;;;;;;;11.68;7.97;;;17.80;99.90;;;;;;4592941;19;20022;-74
2023/09/03 07:31:04;;;;;;;9.00;7.65;;;17.90;99.90;;;;;;4593293;19;20029;-74
2023/09/03 07:32:38;;;;;;;9.95;7.20;;;17.90;99.90;;;;;;4593176;19;20005;-74
2023/09/03 07:34:12;;;;;;;9.88;7.65;;;17.90;99.90;;;;;;4593062;19;20455;-74
2023/09/03 07:35:47;;;;;;;10.13;7.65;;;17.90;99.90;;;;;;4593378;19;20007;-74
2023/09/03 07:37:21;;;;;;;9.98;7.38;;;17.90;99.90;;;;;;4593362;19;19998;-73
2023/09/03 07:38:56;;;;;;;9.90;7.68;;;18.00;99.90;;;;;;4592353;19;20003;-73
2023/09/03 07:40:31;;;;;;;10.43;6.65;;;18.00;99.90;;;;;;4593494;19;20027;-73
2023/09/03 07:42:05;;;;;;;9.02;7.13;;;18.10;99.90;;;;;;4592968;19;20323;-77
2023/09/03 07:43:39;;;;;;;8.93;6.28;;;18.10;99.90;;;;;;4592951;19;20016;-77
2023/09/03 07:45:14;;;;;;;9.27;6.50;;;18.10;99.90;;;;;;4592857;19;20304;-77
2023/09/03 07:46:48;;;;;;;8.15;6.13;;;18.10;99.90;;;;;;4592157;19;20009;-78
2023/09/03 07:48:22;;;;;;;8.02;5.28;;;18.10;99.90;;;;;;4592182;19;20015;-78
2023/09/03 07:49:58;;;;;;;7.43;6.07;;;18.10;99.90;;;;;;4591641;19;20064;-78
2023/09/03 07:51:33;;;;;;;9.30;6.95;;;18.10;99.90;;;;;;4592797;19;20418;-77
2023/09/03 07:53:07;;;;;;;11.90;6.82;;;18.10;99.90;;;;;;4592796;19;20017;-78
2023/09/03 07:54:43;;;;;;;7.63;5.63;;;18.20;99.90;;;;;;4593007;19;20013;-78
2023/09/03 07:56:19;;;;;;;6.80;5.35;;;18.20;99.90;;;;;;4592810;19;20027;-78
2023/09/03 07:57:53;;;;;;;8.68;5.75;;;18.30;99.90;;;;;;4592623;19;20006;-78
2023/09/03 07:59:29;;;;;;;7.80;5.47;;;18.40;99.90;;;;;;4590480;19;20006;-77
2023/09/03 08:01:04;;;;;;;6.05;4.20;;;18.40;99.90;;;;;;4592402;19;19998;-73
2023/09/03 08:02:38;;;;;;;5.82;5.00;;;18.40;99.90;;;;;;4591306;19;20006;-73
2023/09/03 08:04:14;;;;;;;4.75;4.20;;;18.40;99.90;;;;;;4592376;19;20073;-73
2023/09/03 08:05:48;;;;;;;5.72;4.32;;;18.50;99.90;;;;;;4592648;19;20482;-73
2023/09/03 08:07:22;;;;;;;5.88;4.57;;;18.50;99.90;;;;;;4592424;19;20318;-73
2023/09/03 08:08:57;;;;;;;5.35;3.92;;;18.50;99.90;;;;;;4591497;19;20469;-73
2023/09/03 08:10:31;;;;;;;4.93;4.00;;;18.50;99.90;;;;;;4592381;19;20007;-73
2023/09/03 08:12:05;;;;;;;4.90;3.90;;;18.50;99.90;;;;;;4592516;19;19999;-73
2023/09/03 08:13:41;;;;;;;5.30;4.38;;;18.50;99.90;;;;;;4592798;19;20429;-71
2023/09/03 08:15:15;;;;;;;6.53;4.60;;;18.50;99.90;;;;;;4592452;19;19998;-71
2023/09/03 08:16:50;;;;;;;5.25;4.55;;;18.60;99.90;;;;;;4592597;19;20007;-71
2023/09/03 08:18:25;;;;;;;5.97;4.65;;;18.60;99.90;;;;;;4591177;19;20039;-71
2023/09/03 08:19:59;;;;;;;6.22;4.93;;;18.60;99.90;;;;;;4592656;19;20006;-72